Time;durP1;ratioP1;P1;durP2;ratioP2;P2;SDS_P1;SDS_P2;PMS_P1;PMS_P2;Temp;Humidity;BMP_temperature;BMP_pressure;BME280_temperature;BME280_humidity;BME280_pressure;Samples;Min_cycle;Max_cycle;Signal;HPM_P1;HPM_P2
2021/09/13 00:01:55;;;;;;;1.83;0.40;;;;;;;16.28;92.55;101989.97;5071645;28;20054;-33
2021/09/13 00:04:25;;;;;;;2.30;0.40;;;;;;;16.28;92.59;101986.31;5070862;28;20049;-34
2021/09/13 00:06:55;;;;;;;3.25;0.40;;;;;;;16.26;92.66;101988.59;5071573;28;20132;-38
2021/09/13 00:09:22;;;;;;;2.53;0.50;;;;;;;16.24;92.57;101982.44;5071000;28;20458;-34
2021/09/13 00:11:51;;;;;;;2.35;0.50;;;;;;;16.23;92.67;101981.59;5071147;28;20122;-39
2021/09/13 00:14:21;;;;;;;1.10;0.32;;;;;;;16.23;92.53;101987.22;5070907;28;20139;-36
2021/09/13 00:16:51;;;;;;;1.42;0.40;;;;;;;16.23;92.61;101989.22;5059840;28;20506;-35
2021/09/13 00:19:19;;;;;;;1.00;0.30;;;;;;;16.23;92.56;101986.41;5070513;28;20091;-42
2021/09/13 00:21:48;;;;;;;2.92;0.60;;;;;;;16.22;92.70;101976.28;5071383;28;20510;-38
2021/09/13 00:24:18;;;;;;;1.75;0.40;;;;;;;16.22;92.65;101981.91;5070998;28;20597;-41
2021/09/13 00:26:47;;;;;;;1.75;0.50;;;;;;;16.22;92.72;101976.28;5070622;28;20044;-37
2021/09/13 00:29:15;;;;;;;2.28;0.50;;;;;;;16.20;92.53;101980.22;5071210;28;20140;-36
2021/09/13 00:31:43;;;;;;;1.98;0.47;;;;;;;16.20;92.71;101974.59;5085686;28;20083;-34
2021/09/13 00:34:12;;;;;;;3.10;0.50;;;;;;;16.20;92.79;101974.59;5070696;28;20097;-37
2021/09/13 00:36:41;;;;;;;3.67;0.60;;;;;;;16.19;92.95;101974.91;5070769;28;20052;-39
2021/09/13 00:39:10;;;;;;;2.00;0.60;;;;;;;16.16;93.04;101972.72;5070900;28;20131;-35
2021/09/13 00:41:41;;;;;;;3.65;0.70;;;;;;;16.15;93.02;101973.88;5070334;28;20054;-40
2021/09/13 00:44:09;;;;;;;2.60;0.65;;;;;;;16.13;93.18;101974.19;5071364;28;20083;-42
2021/09/13 00:46:37;;;;;;;2.88;0.88;;;;;;;16.13;93.19;101979.81;5070221;28;20048;-39
2021/09/13 00:49:05;;;;;;;2.00;0.50;;;;;;;16.13;93.40;101978.97;5071191;28;20046;-39
2021/09/13 00:51:33;;;;;;;3.15;0.70;;;;;;;16.12;93.44;101978.16;5069224;28;20139;-41
2021/09/13 00:54:01;;;;;;;4.55;0.90;;;;;;;16.11;93.78;101975.63;5070238;28;20139;-36
2021/09/13 00:56:28;;;;;;;2.53;0.70;;;;;;;16.09;93.83;101967.50;5070814;28;20094;-43
2021/09/13 00:58:58;;;;;;;2.47;0.73;;;;;;;16.08;94.05;101977.09;5071008;28;20052;-37
2021/09/13 01:01:26;;;;;;;2.97;0.80;;;;;;;16.08;94.27;101970.63;5069984;28;20044;-42
2021/09/13 01:03:54;;;;;;;2.97;0.65;;;;;;;16.07;94.47;101974.56;5086347;28;20052;-40
2021/09/13 01:06:22;;;;;;;6.40;0.95;;;;;;;16.06;94.52;101973.75;5069032;28;20132;-37
2021/09/13 01:08:50;;;;;;;4.38;1.00;;;;;;;16.05;94.87;101976.88;5068913;28;20135;-38
2021/09/13 01:11:18;;;;;;;4.13;0.93;;;;;;;16.03;95.02;101976.34;5070491;28;20058;-36
2021/09/13 01:13:46;;;;;;;2.67;0.90;;;;;;;16.01;95.27;101979.47;5069681;28;20486;-36
2021/09/13 01:16:16;;;;;;;3.78;0.90;;;;;;;16.00;95.28;101985.41;5068718;28;20041;-35
2021/09/13 01:18:44;;;;;;;4.43;1.10;;;;;;;15.97;95.21;101977.59;5069346;28;20403;-36
2021/09/13 01:21:12;;;;;;;6.20;1.13;;;;;;;15.94;95.23;101986.66;5069253;28;20072;-36
2021/09/13 01:23:44;;;;;;;3.08;0.80;;;;;;;15.91;95.53;101979.66;5068854;28;20054;-37
2021/09/13 01:26:14;;;;;;;3.63;0.90;;;;;;;15.87;95.39;101978.59;5069147;28;20052;-36
2021/09/13 01:28:42;;;;;;;3.20;1.00;;;;;;;15.84;95.48;101977.22;5074103;28;20131;-38
2021/09/13 01:31:13;;;;;;;2.88;0.75;;;;;;;15.81;95.43;101974.19;5074686;28;20044;-37
2021/09/13 01:33:44;;;;;;;1.92;0.55;;;;;;;15.77;95.57;101979.63;5074225;28;20067;-35
2021/09/13 01:36:20;;;;;;;3.00;0.73;;;;;;;15.75;95.60;101981.91;5072692;28;20052;-38
2021/09/13 01:38:49;;;;;;;4.38;0.70;;;;;;;15.73;95.23;101981.38;5089911;28;20560;-44
2021/09/13 01:41:17;;;;;;;3.30;0.80;;;;;;;15.71;95.30;101977.19;5074483;28;20101;-39
2021/09/13 01:43:48;;;;;;;2.58;0.70;;;;;;;15.70;95.17;101986.75;5072252;28;20066;-36
2021/09/13 01:46:15;;;;;;;3.30;0.90;;;;;;;15.68;95.13;101975.81;5073315;28;20044;-34
2021/09/13 01:48:49;;;;;;;2.90;0.70;;;;;;;15.67;95.11;101964.84;5086816;28;20049;-40
2021/09/13 01:51:17;;;;;;;3.58;0.80;;;;;;;15.65;95.05;101967.97;5069152;28;20045;-37
2021/09/13 01:53:46;;;;;;;5.55;1.05;;;;;;;15.65;95.08;101969.94;5072592;28;20430;-41
2021/09/13 01:56:16;;;;;;;2.05;0.52;;;;;;;15.64;95.04;101966.31;5074187;28;20120;-37
2021/09/13 01:58:44;;;;;;;2.35;0.80;;;;;;;15.64;95.01;101962.66;5073557;28;20129;-36
2021/09/13 02:01:12;;;;;;;2.20;0.60;;;;;;;15.64;94.95;101968.28;5072931;28;20083;-41
2021/09/13 02:03:42;;;;;;;2.42;0.70;;;;;;;15.63;94.88;101963.78;5072454;28;20059;-44
2021/09/13 02:06:11;;;;;;;3.78;0.75;;;;;;;15.62;94.91;101962.13;5072726;28;20471;-36
2021/09/13 02:08:39;;;;;;;3.45;0.90;;;;;;;15.62;94.64;101970.56;5071913;28;20572;-38
2021/09/13 02:11:08;;;;;;;2.45;0.70;;;;;;;15.61;94.76;101963.25;5073328;28;20491;-40
2021/09/13 02:13:39;;;;;;;3.47;0.80;;;;;;;15.62;94.67;101973.38;5089019;28;20486;-37
2021/09/13 02:16:08;;;;;;;2.80;0.90;;;;;;;15.63;94.76;101973.06;5072697;28;20064;-41
2021/09/13 02:18:39;;;;;;;3.75;0.90;;;;;;;15.63;94.79;101964.63;5072858;28;20059;-40
2021/09/13 02:21:08;;;;;;;5.13;1.20;;;;;;;15.64;95.00;101969.13;5072415;28;20140;-41
2021/09/13 02:23:38;;;;;;;3.17;0.80;;;;;;;15.64;95.26;101966.31;5071918;28;20483;-35
2021/09/13 02:26:09;;;;;;;4.93;0.83;;;;;;;15.64;95.26;101966.31;5061365;28;20056;-34
2021/09/13 02:28:38;;;;;;;4.28;0.90;;;;;;;15.66;95.18;101957.56;5088752;28;20136;-39
2021/09/13 02:31:07;;;;;;;2.58;0.85;;;;;;;15.66;95.20;101957.56;5073534;28;20044;-40
2021/09/13 02:33:35;;;;;;;2.20;0.77;;;;;;;15.66;95.15;101958.41;5071076;28;20384;-41
2021/09/13 02:36:04;;;;;;;2.25;0.75;;;;;;;15.67;95.28;101959.22;5072037;28;20048;-41
2021/09/13 02:38:36;;;;;;;3.00;0.70;;;;;;;15.67;95.21;101954.44;5088038;28;20044;-36
2021/09/13 02:41:04;;;;;;;1.42;0.63;;;;;;;15.69;94.87;101959.75;5070732;28;20509;-39
2021/09/13 02:43:33;;;;;;;2.50;0.70;;;;;;;15.70;94.95;101950.19;5071795;28;20045;-37
2021/09/13 02:46:01;;;;;;;1.92;0.63;;;;;;;15.69;94.77;101954.97;5070976;28;20518;-37
2021/09/13 02:48:33;;;;;;;2.63;0.60;;;;;;;15.69;94.66;101954.13;5071696;28;20056;-41
2021/09/13 02:51:05;;;;;;;3.17;1.00;;;;;;;15.68;94.61;101944.03;5088925;28;20056;-45
2021/09/13 02:53:35;;;;;;;3.78;0.68;;;;;;;15.67;94.50;101957.25;5071447;28;20048;-39
2021/09/13 02:56:04;;;;;;;3.60;0.75;;;;;;;15.67;94.26;101964.84;5071684;28;20053;-41
2021/09/13 02:58:37;;;;;;;2.80;0.70;;;;;;;15.67;94.14;101962.03;5068992;28;20060;-43
2021/09/13 03:01:05;;;;;;;2.22;0.70;;;;;;;15.67;94.08;101962.03;5072030;28;20052;-37
2021/09/13 03:03:35;;;;;;;2.40;0.50;;;;;;;15.66;93.81;101951.94;5071664;28;20050;-36
2021/09/13 03:06:04;;;;;;;1.45;0.50;;;;;;;15.65;93.70;101953.06;5072436;28;20545;-40
2021/09/13 03:08:32;;;;;;;3.17;0.80;;;;;;;15.65;93.46;101956.72;5072257;28;20571;-35
2021/09/13 03:10:59;;;;;;;3.47;0.57;;;;;;;15.66;93.44;101949.13;5070994;28;20122;-36
2021/09/13 03:13:27;;;;;;;1.63;0.50;;;;;;;15.66;93.26;101957.56;5072801;28;20380;-38
2021/09/13 03:15:56;;;;;;;2.20;0.60;;;;;;;15.66;93.24;101960.38;5071745;28;20142;-35
2021/09/13 03:18:24;;;;;;;2.97;0.63;;;;;;;15.66;93.23;101957.56;5071495;28;20455;-33
2021/09/13 03:20:53;;;;;;;2.08;0.60;;;;;;;15.68;93.15;101952.47;5072227;28;20059;-40
2021/09/13 03:23:21;;;;;;;2.33;0.60;;;;;;;15.67;93.08;101948.81;5072011;28;20102;-37
2021/09/13 03:25:49;;;;;;;2.50;0.75;;;;;;;15.69;92.78;101957.78;5087487;28;20048;-38
2021/09/13 03:28:17;;;;;;;1.45;0.52;;;;;;;15.70;92.79;101961.44;5070517;28;20056;-38
2021/09/13 03:30:45;;;;;;;1.80;0.40;;;;;;;15.71;92.71;101951.84;5070882;28;20051;-41
2021/09/13 03:33:14;;;;;;;1.70;0.50;;;;;;;15.71;92.62;101951.84;5071043;28;20048;-43
2021/09/13 03:35:42;;;;;;;1.20;0.40;;;;;;;15.71;92.54;101955.50;5086958;28;20052;-37
2021/09/13 03:38:11;;;;;;;1.83;0.50;;;;;;;15.69;92.63;101954.97;5072262;28;20039;-37
2021/09/13 03:40:39;;;;;;;2.85;0.52;;;;;;;15.69;92.58;101954.13;5071709;28;20056;-34
2021/09/13 03:43:08;;;;;;;1.98;0.60;;;;;;;15.69;92.35;101959.75;5070546;28;20053;-39
2021/09/13 03:45:35;;;;;;;1.20;0.40;;;;;;;15.69;92.40;101948.50;5072104;28;20082;-43
2021/09/13 03:48:12;;;;;;;2.50;0.70;;;;;;;15.66;92.32;101955.59;5087165;28;20102;-36
2021/09/13 03:50:44;;;;;;;2.08;0.73;;;;;;;15.65;92.35;101951.09;5085924;28;20053;-39
2021/09/13 03:53:14;;;;;;;1.40;0.47;;;;;;;15.65;92.30;101944.63;5070051;28;20048;-34
2021/09/13 03:55:42;;;;;;;1.42;0.50;;;;;;;15.63;92.47;101947.75;5070595;28;20053;-33
2021/09/13 03:58:12;;;;;;;1.52;0.40;;;;;;;15.63;92.41;101942.13;5069776;28;20118;-38
2021/09/13 04:00:40;;;;;;;1.70;0.60;;;;;;;15.62;92.30;101946.06;5071596;28;20451;-39
2021/09/13 04:03:17;;;;;;;1.23;0.43;;;;;;;15.63;92.36;101941.28;5066430;28;20453;-39
2021/09/13 04:05:46;;;;;;;1.38;0.50;;;;;;;15.61;92.08;101935.97;5070746;28;20077;-36
2021/09/13 04:08:45;;;;;;;1.58;0.45;;;;;;;15.58;92.54;101936.59;5067085;28;20145;-34
2021/09/13 04:11:49;;;;;;;2.00;0.45;;;;;;;15.52;92.72;101935.81;5086383;28;20530;-40
2021/09/13 04:14:37;;;;;;;1.17;0.40;;;;;;;15.48;92.75;101939.53;5070416;28;20049;-37
2021/09/13 04:17:23;;;;;;;1.58;0.50;;;;;;;15.47;92.84;101941.50;5070854;28;20059;-37
2021/09/13 04:20:09;;;;;;;2.47;0.70;;;;;;;15.47;92.64;101949.13;5060825;28;20055;-38
2021/09/13 04:22:59;;;;;;;1.27;0.40;;;;;;;15.45;92.82;101946.59;5086697;28;20175;-35
2021/09/13 04:25:37;;;;;;;1.30;0.50;;;;;;;15.44;92.74;101944.94;5069588;28;20062;-37
2021/09/13 04:28:19;;;;;;;1.55;0.40;;;;;;;15.44;92.86;101944.94;5086148;28;20049;-42
2021/09/13 04:30:53;;;;;;;2.05;0.70;;;;;;;15.43;93.07;101942.41;5070154;28;20041;-38
2021/09/13 04:33:40;;;;;;;2.22;0.55;;;;;;;15.39;93.17;101939.38;5070234;28;20051;-39
2021/09/13 04:36:22;;;;;;;2.05;0.63;;;;;;;15.39;93.26;101944.16;5069957;28;20082;-41
2021/09/13 04:39:10;;;;;;;1.35;0.40;;;;;;;15.37;93.15;101936.06;5071123;28;20399;-36
2021/09/13 04:41:58;;;;;;;2.00;0.80;;;;;;;15.38;93.28;101940.53;5051626;28;20060;-38
2021/09/13 04:44:44;;;;;;;2.78;1.17;;;;;;;15.38;93.36;101945.34;5068200;28;20174;-37
2021/09/13 04:47:32;;;;;;;2.30;1.00;;;;;;;15.36;93.38;101940.00;5069201;28;20612;-39
2021/09/13 04:50:22;;;;;;;2.08;0.90;;;;;;;15.37;93.49;101943.66;5065178;28;20059;-39
2021/09/13 04:53:09;;;;;;;1.85;0.68;;;;;;;15.37;93.61;101944.50;5066992;28;20044;-38
2021/09/13 04:55:37;;;;;;;2.63;0.80;;;;;;;15.39;93.61;101953.44;5068931;28;20048;-36
2021/09/13 04:58:07;;;;;;;1.60;0.85;;;;;;;15.40;93.58;101948.66;5085926;28;20048;-36
2021/09/13 05:00:35;;;;;;;2.33;0.95;;;;;;;15.40;93.69;101957.09;5069420;28;20529;-41
2021/09/13 05:03:03;;;;;;;2.58;0.75;;;;;;;15.42;93.64;101952.00;5069028;28;20098;-39
2021/09/13 05:05:31;;;;;;;2.30;0.70;;;;;;;15.43;93.78;101954.50;5068939;28;20048;-39
2021/09/13 05:08:00;;;;;;;1.80;0.60;;;;;;;15.45;93.65;101957.00;5068348;28;20122;-39
2021/09/13 05:10:28;;;;;;;1.73;0.75;;;;;;;15.47;93.57;101961.19;5069283;28;20098;-38
2021/09/13 05:12:56;;;;;;;1.95;0.73;;;;;;;15.49;93.51;101958.94;5070822;28;20048;-39
2021/09/13 05:15:25;;;;;;;2.33;0.70;;;;;;;15.50;93.59;101960.59;5068485;28;20416;-37
2021/09/13 05:17:53;;;;;;;3.00;0.80;;;;;;;15.52;93.53;101969.56;5069489;28;20083;-39
2021/09/13 05:20:21;;;;;;;3.65;1.15;;;;;;;15.54;93.55;101960.00;5085694;28;20048;-40
2021/09/13 05:22:49;;;;;;;3.92;0.90;;;;;;;15.55;93.63;101965.31;5070503;28;20419;-34
2021/09/13 05:25:19;;;;;;;2.72;0.63;;;;;;;15.58;93.57;101961.09;5068975;28;20095;-38
2021/09/13 05:27:48;;;;;;;1.85;0.60;;;;;;;15.59;93.67;101962.75;5085679;28;20066;-43
2021/09/13 05:30:16;;;;;;;1.77;0.70;;;;;;;15.62;93.56;101962.13;5068815;28;20048;-37
2021/09/13 05:32:46;;;;;;;1.25;0.40;;;;;;;15.61;93.45;101972.53;5086133;28;20053;-38
2021/09/13 05:35:14;;;;;;;2.03;0.60;;;;;;;15.63;93.25;101970.25;5069550;28;20395;-33
2021/09/13 05:37:43;;;;;;;2.05;0.50;;;;;;;15.65;93.34;101967.13;5069440;28;20052;-40
2021/09/13 05:40:11;;;;;;;1.65;0.60;;;;;;;15.67;93.33;101970.50;5069092;28;20045;-37
2021/09/13 05:42:41;;;;;;;2.10;0.70;;;;;;;15.68;93.30;101974.97;5057643;28;20044;-37
2021/09/13 05:45:13;;;;;;;3.08;0.60;;;;;;;15.69;93.46;101971.84;5068724;28;20509;-38
2021/09/13 05:47:47;;;;;;;;;;;;;;;15.66;93.03;101969.66;5069954;28;20564;-40
2021/09/13 05:50:15;;;;;;;1.65;0.60;;;;;;;15.65;93.56;101967.97;5068371;28;19928;-40
2021/09/13 05:52:43;;;;;;;2.40;0.73;;;;;;;15.71;93.42;101972.38;5069150;28;20084;-41
2021/09/13 05:55:11;;;;;;;2.15;0.70;;;;;;;15.75;93.43;101978.25;5068764;28;20395;-41
2021/09/13 05:57:45;;;;;;;2.45;0.90;;;;;;;15.78;93.39;101980.44;5065228;28;20075;-35
2021/09/13 06:00:19;;;;;;;2.53;0.80;;;;;;;15.79;93.25;101987.72;5068611;28;20079;-37
2021/09/13 06:02:55;;;;;;;3.60;0.85;;;;;;;15.81;93.07;101986.28;5068698;28;20067;-36
2021/09/13 06:05:32;;;;;;;1.60;0.50;;;;;;;15.83;93.26;101985.97;5068781;28;20044;-37
2021/09/13 06:08:03;;;;;;;1.48;0.40;;;;;;;15.87;93.29;101998.28;5084384;28;20056;-37
2021/09/13 06:10:32;;;;;;;3.22;0.70;;;;;;;15.89;93.31;101996.00;5067491;28;20094;-39
2021/09/13 06:13:00;;;;;;;1.23;0.50;;;;;;;15.92;93.36;101998.22;5067921;28;20462;-35
2021/09/13 06:15:28;;;;;;;2.72;0.70;;;;;;;15.95;93.31;101999.59;5071546;28;20052;-39
2021/09/13 06:17:58;;;;;;;1.13;0.50;;;;;;;15.99;93.21;102007.09;5070808;28;20091;-41
2021/09/13 06:20:27;;;;;;;1.67;0.60;;;;;;;16.04;93.24;102008.97;5088734;28;20123;-37
2021/09/13 06:22:56;;;;;;;2.03;0.70;;;;;;;16.09;93.57;102006.09;5067944;28;20059;-37
2021/09/13 06:25:30;;;;;;;2.75;0.90;;;;;;;16.16;93.42;102012.16;5051767;28;20052;-42
2021/09/13 06:27:58;;;;;;;4.07;0.90;;;;;;;16.25;93.51;102012.28;5071363;28;20392;-40
2021/09/13 06:30:27;;;;;;;3.75;0.90;;;;;;;16.34;93.74;102014.06;5088237;28;20147;-36
2021/09/13 06:32:59;;;;;;;2.50;0.77;;;;;;;16.44;93.62;102010.22;5087528;28;20052;-35
2021/09/13 06:35:30;;;;;;;2.78;0.85;;;;;;;16.53;93.68;102014.00;5071382;28;20147;-40
2021/09/13 06:38:04;;;;;;;2.10;0.70;;;;;;;16.61;93.58;102018.91;5070268;28;20045;-35
2021/09/13 06:40:33;;;;;;;3.55;1.00;;;;;;;16.72;93.71;102014.78;5072831;28;20469;-35
2021/09/13 06:43:00;;;;;;;2.13;0.68;;;;;;;16.81;93.50;102017.69;5072249;28;20052;-39
2021/09/13 06:45:28;;;;;;;3.00;0.98;;;;;;;16.87;93.37;102017.28;5070662;28;20143;-37
2021/09/13 06:48:02;;;;;;;2.45;0.70;;;;;;;16.94;93.41;102011.22;5072115;28;20052;-37
2021/09/13 06:50:32;;;;;;;3.85;0.85;;;;;;;16.98;93.07;102017.91;5072035;28;20056;-35
2021/09/13 06:53:00;;;;;;;2.47;0.70;;;;;;;17.02;92.84;102018.09;5066984;28;20052;-44
2021/09/13 06:55:29;;;;;;;2.15;0.70;;;;;;;17.05;92.62;102023.13;5070853;28;20044;-41
2021/09/13 06:57:57;;;;;;;1.48;0.50;;;;;;;17.07;92.51;102021.66;5071769;28;20055;-39
2021/09/13 07:00:25;;;;;;;2.45;0.73;;;;;;;17.09;92.28;102022.19;5072108;28;20062;-40
2021/09/13 07:02:53;;;;;;;3.95;1.10;;;;;;;17.13;92.10;102026.03;5070904;28;20425;-44
2021/09/13 07:05:22;;;;;;;3.03;0.80;;;;;;;17.18;92.24;102025.94;5070388;28;20455;-36
2021/09/13 07:07:50;;;;;;;2.08;0.70;;;;;;;17.23;92.14;102031.44;5070478;28;20056;-34
2021/09/13 07:10:19;;;;;;;3.97;0.80;;;;;;;17.30;91.97;102030.19;5072068;28;20049;-39
2021/09/13 07:12:48;;;;;;;2.25;0.63;;;;;;;17.34;91.87;102029.25;5071583;28;20070;-40
2021/09/13 07:15:17;;;;;;;1.70;0.50;;;;;;;17.39;91.47;102033.91;5071502;28;20784;-33
2021/09/13 07:17:45;;;;;;;2.83;0.63;;;;;;;17.43;91.23;102038.63;5072120;28;20489;-37
2021/09/13 07:20:14;;;;;;;2.10;0.68;;;;;;;17.48;90.83;102041.34;5071090;28;20041;-33
2021/09/13 07:22:43;;;;;;;2.25;0.60;;;;;;;17.53;91.02;102046.88;5071282;28;20045;-35
2021/09/13 07:25:12;;;;;;;1.80;0.57;;;;;;;17.60;90.53;102045.56;5071597;28;20114;-41
2021/09/13 07:27:40;;;;;;;2.13;0.60;;;;;;;17.63;90.07;102042.97;5071075;28;20049;-38
2021/09/13 07:30:10;;;;;;;2.60;0.65;;;;;;;17.67;89.82;102046.00;5067845;28;20478;-38
2021/09/13 07:32:38;;;;;;;2.15;0.65;;;;;;;17.70;89.26;102048.22;5053935;28;20393;-36
2021/09/13 07:35:08;;;;;;;3.38;0.60;;;;;;;17.73;88.44;102054.06;5070851;28;20052;-39
2021/09/13 07:37:36;;;;;;;2.55;0.60;;;;;;;17.79;88.28;102049.94;5071874;28;20094;-39
2021/09/13 07:40:08;;;;;;;3.75;0.90;;;;;;;17.90;88.21;102044.91;5071690;28;20094;-41
2021/09/13 07:42:36;;;;;;;2.83;1.02;;;;;;;18.02;87.28;102047.97;5071817;28;20092;-38
2021/09/13 07:45:05;;;;;;;2.10;0.70;;;;;;;18.18;86.53;102051.25;5069100;28;20090;-35
2021/09/13 07:47:35;;;;;;;3.40;1.25;;;;;;;18.35;85.64;102057.03;5071914;28;20048;-40
2021/09/13 07:50:03;;;;;;;3.75;0.80;;;;;;;18.55;85.33;102052.81;5071057;28;20048;-40
2021/09/13 07:52:31;;;;;;;2.20;0.90;;;;;;;18.70;83.67;102045.94;5070398;28;20430;-37
2021/09/13 07:54:59;;;;;;;4.38;0.80;;;;;;;18.81;82.87;102052.97;5071362;28;20047;-40
2021/09/13 07:57:29;;;;;;;4.05;1.55;;;;;;;18.89;82.18;102055.00;5071545;28;20053;-43
2021/09/13 07:59:57;;;;;;;3.35;0.60;;;;;;;18.98;81.80;102055.06;5070957;28;20075;-36
2021/09/13 08:02:25;;;;;;;2.58;0.70;;;;;;;19.09;81.38;102062.06;5071454;28;20079;-38
2021/09/13 08:04:54;;;;;;;2.95;0.88;;;;;;;19.24;81.12;102062.44;5071219;28;20051;-36
2021/09/13 08:07:21;;;;;;;3.45;0.70;;;;;;;19.37;79.54;102068.31;5071256;28;20450;-39
2021/09/13 08:09:49;;;;;;;3.03;0.80;;;;;;;19.53;79.10;102067.53;5070777;28;20094;-39
2021/09/13 08:12:18;;;;;;;5.65;0.80;;;;;;;19.73;78.14;102066.06;5071616;28;20487;-38
2021/09/13 08:14:51;;;;;;;;;;;;;;;19.84;74.82;102069.41;5070179;28;20044;-40
2021/09/13 08:17:19;;;;;;;2.47;0.60;;;;;;;19.99;76.36;102071.72;5069380;28;19947;-40
2021/09/13 08:19:47;;;;;;;3.17;0.82;;;;;;;20.35;74.97;102076.22;5070423;28;20044;-39
2021/09/13 08:22:17;;;;;;;4.35;0.90;;;;;;;20.71;73.13;102087.16;5070571;28;20059;-38
2021/09/13 08:24:45;;;;;;;3.65;0.80;;;;;;;20.92;70.86;102086.09;5069969;28;20053;-39
2021/09/13 08:27:26;;;;;;;3.47;0.90;;;;;;;20.99;70.04;102077.88;5069106;28;20048;-34
2021/09/13 08:29:55;;;;;;;2.53;0.60;;;;;;;21.06;69.57;102083.03;5070545;28;20503;-36
2021/09/13 08:32:23;;;;;;;3.78;0.70;;;;;;;21.08;69.11;102074.16;5070553;28;20059;-38
2021/09/13 08:34:53;;;;;;;2.13;0.60;;;;;;;21.12;69.10;102089.34;5071188;28;20568;-44
2021/09/13 08:37:21;;;;;;;3.92;0.85;;;;;;;21.13;68.43;102082.50;5070127;28;20123;-43
2021/09/13 08:39:49;;;;;;;2.83;0.57;;;;;;;21.13;68.29;102085.34;5070632;28;20056;-35
2021/09/13 08:42:17;;;;;;;1.90;0.60;;;;;;;21.09;67.52;102082.34;5070556;28;20110;-37
2021/09/13 08:44:49;;;;;;;2.92;0.80;;;;;;;21.08;67.66;102096.88;5070458;28;20051;-41
2021/09/13 08:47:20;;;;;;;2.42;0.57;;;;;;;21.14;67.77;102087.84;5070674;28;20055;-38
2021/09/13 08:49:51;;;;;;;2.28;0.73;;;;;;;21.16;67.09;102093.19;5071000;28;20609;-37
2021/09/13 08:52:19;;;;;;;2.63;0.63;;;;;;;21.13;66.59;102094.69;5069918;28;20472;-42
2021/09/13 08:54:46;;;;;;;1.85;0.50;;;;;;;21.12;66.80;102100.69;5070923;28;20082;-36
2021/09/13 08:57:17;;;;;;;3.63;0.75;;;;;;;21.13;66.41;102099.53;5070309;28;20048;-39
2021/09/13 08:59:47;;;;;;;2.88;0.60;;;;;;;21.10;66.31;102097.38;5070459;28;20078;-38
2021/09/13 09:02:16;;;;;;;3.30;0.60;;;;;;;21.16;66.73;102096.00;5070450;28;20051;-33
2021/09/13 09:04:57;;;;;;;3.65;0.68;;;;;;;21.31;66.54;102095.47;5070955;28;20089;-36
2021/09/13 09:07:27;;;;;;;2.88;0.60;;;;;;;21.42;65.91;102093.88;5069422;28;20053;-32
2021/09/13 09:10:10;;;;;;;2.67;1.08;;;;;;;21.44;65.39;102097.22;5070936;28;20059;-43
2021/09/13 09:13:00;;;;;;;3.30;0.50;;;;;;;21.40;65.24;102101.91;5070103;28;20052;-33
2021/09/13 09:15:30;;;;;;;3.63;0.60;;;;;;;21.27;66.00;102100.97;5069058;28;20044;-38
2021/09/13 09:18:00;;;;;;;2.53;0.63;;;;;;;21.21;66.02;102101.50;5069994;28;20384;-38
2021/09/13 09:20:41;;;;;;;1.65;0.50;;;;;;;21.16;65.94;102096.00;5070332;28;20051;-36
2021/09/13 09:23:09;;;;;;;2.90;0.47;;;;;;;21.10;66.25;102105.88;5070381;28;20072;-40
2021/09/13 09:25:39;;;;;;;1.33;0.50;;;;;;;21.11;66.12;102104.72;5070341;28;20113;-35
2021/09/13 09:28:11;;;;;;;2.15;0.50;;;;;;;21.14;66.25;102106.88;5068934;28;20396;-38
2021/09/13 09:30:40;;;;;;;2.08;0.60;;;;;;;21.18;65.92;102107.88;5070453;28;20087;-37
2021/09/13 09:33:10;;;;;;;2.15;0.43;;;;;;;21.21;65.39;102107.19;5070224;28;20443;-38
2021/09/13 09:35:45;;;;;;;4.50;0.98;;;;;;;21.27;64.14;102115.19;5070020;28;20147;-38
2021/09/13 09:38:35;;;;;;;1.60;0.60;;;;;;;21.37;62.77;102113.97;5069994;28;20144;-38
2021/09/13 09:41:06;;;;;;;1.20;0.43;;;;;;;21.42;63.36;102116.59;5070096;28;20175;-36
2021/09/13 09:43:51;;;;;;;1.33;0.52;;;;;;;21.55;62.40;102112.69;5070165;28;20131;-41
2021/09/13 09:46:21;;;;;;;2.72;0.50;;;;;;;21.60;61.99;102120.16;5069768;28;20052;-40
2021/09/13 09:48:49;;;;;;;2.90;0.63;;;;;;;21.59;61.69;102116.50;5071812;28;20435;-42
2021/09/13 09:51:29;;;;;;;2.58;0.82;;;;;;;21.63;60.68;102120.31;5074080;28;20059;-39
2021/09/13 09:53:57;;;;;;;2.28;0.63;;;;;;;21.58;60.61;102123.34;5073917;28;20048;-35
2021/09/13 09:56:26;;;;;;;2.38;0.60;;;;;;;21.53;60.14;102119.91;5073537;28;20078;-37
2021/09/13 09:59:02;;;;;;;2.42;0.68;;;;;;;21.49;60.57;102111.22;5073774;28;20056;-36
2021/09/13 10:01:31;;;;;;;3.28;0.60;;;;;;;21.48;61.22;102106.72;5073907;28;20070;-39
2021/09/13 10:04:12;;;;;;;1.92;0.45;;;;;;;21.50;60.51;102115.72;5072923;28;20472;-39
2021/09/13 10:06:43;;;;;;;2.17;0.60;;;;;;;21.42;60.97;102105.25;5064802;28;20131;-36
2021/09/13 10:09:11;;;;;;;2.00;0.52;;;;;;;21.43;61.10;102098.38;5072930;28;20125;-38
2021/09/13 10:11:40;;;;;;;2.22;0.50;;;;;;;21.46;61.32;102102.56;5062962;28;20052;-36
2021/09/13 10:14:09;;;;;;;1.20;0.40;;;;;;;21.50;60.94;102097.84;5073228;28;20541;-36
2021/09/13 10:16:39;;;;;;;1.88;0.50;;;;;;;21.50;60.95;102086.50;5073520;28;20063;-37
2021/09/13 10:19:07;;;;;;;1.70;0.47;;;;;;;21.52;60.97;102090.66;5073531;28;20040;-42
2021/09/13 10:21:36;;;;;;;2.05;0.65;;;;;;;21.56;60.39;102085.97;5073887;28;20084;-35
2021/09/13 10:24:08;;;;;;;2.47;0.45;;;;;;;21.49;60.36;102093.34;5072848;28;20403;-39
2021/09/13 10:26:40;;;;;;;1.30;0.40;;;;;;;21.42;61.33;102095.88;5072663;28;20040;-40
2021/09/13 10:29:22;;;;;;;2.80;0.45;;;;;;;21.44;61.22;102097.22;5073815;28;20185;-36
2021/09/13 10:32:08;;;;;;;1.60;0.47;;;;;;;21.46;61.10;102092.03;5072831;28;20076;-36
2021/09/13 10:34:49;;;;;;;2.45;0.57;;;;;;;21.46;61.59;102094.88;5073297;28;20533;-37
2021/09/13 10:37:18;;;;;;;2.05;0.50;;;;;;;21.46;61.94;102094.03;5070997;28;20057;-34
2021/09/13 10:39:56;;;;;;;2.47;0.50;;;;;;;21.50;61.33;102081.66;5072807;28;20537;-34
2021/09/13 10:42:43;;;;;;;1.75;0.30;;;;;;;21.52;61.06;102078.47;5071433;28;20099;-35
2021/09/13 10:45:18;;;;;;;1.45;0.40;;;;;;;21.52;60.93;102089.84;5072412;28;20036;-35
2021/09/13 10:47:48;;;;;;;1.25;0.50;;;;;;;21.53;60.98;102080.13;5073317;28;20087;-37
2021/09/13 10:50:26;;;;;;;1.20;0.40;;;;;;;21.62;61.13;102083.72;5072745;28;20514;-37
2021/09/13 10:52:55;;;;;;;1.88;0.50;;;;;;;21.64;60.50;102075.69;5072728;28;20045;-38
2021/09/13 10:55:29;;;;;;;3.33;0.55;;;;;;;21.65;60.07;102077.38;5072697;28;20426;-38
2021/09/13 10:57:59;;;;;;;3.70;0.68;;;;;;;21.66;59.71;102067.66;5072949;28;20490;-36
2021/09/13 11:00:56;;;;;;;2.10;0.55;;;;;;;21.63;58.98;102071.19;5071770;28;20040;-40
2021/09/13 11:03:52;;;;;;;2.35;0.60;;;;;;;21.60;59.12;102078.38;5062080;28;20403;-38
2021/09/13 11:06:43;;;;;;;2.10;0.50;;;;;;;21.59;59.61;102076.72;5071676;28;20033;-34
2021/09/13 11:09:15;;;;;;;2.63;0.60;;;;;;;21.54;59.54;102071.28;5073085;28;20105;-35
2021/09/13 11:11:46;;;;;;;2.80;0.50;;;;;;;21.50;59.58;102070.28;5072342;28;20529;-37
2021/09/13 11:14:17;;;;;;;3.55;0.88;;;;;;;21.45;59.50;102064.81;5072377;28;20049;-34
2021/09/13 11:16:46;;;;;;;2.30;0.60;;;;;;;21.36;59.77;102064.03;5072222;28;20552;-38
2021/09/13 11:19:17;;;;;;;4.60;0.70;;;;;;;21.33;59.78;102064.72;5072735;28;20056;-38
2021/09/13 11:21:47;;;;;;;2.50;0.60;;;;;;;21.23;60.22;102070.78;5071907;28;20045;-38
2021/09/13 11:24:17;;;;;;;1.45;0.40;;;;;;;21.13;60.58;102060.63;5072474;28;20139;-35
2021/09/13 11:26:49;;;;;;;2.85;0.52;;;;;;;21.06;60.65;102066.00;5071574;28;20392;-43
2021/09/13 11:29:19;;;;;;;;;;;;;;;20.91;59.45;102061.72;5062254;28;20060;-36
2021/09/13 11:31:49;;;;;;;2.13;0.40;;;;;;;20.85;61.68;102053.72;5072176;28;19970;-38
2021/09/13 11:34:24;;;;;;;1.25;0.47;;;;;;;20.84;61.51;102052.91;5071935;28;20055;-38
2021/09/13 11:36:55;;;;;;;1.50;0.30;;;;;;;20.83;61.77;102065.41;5072055;28;20393;-43
2021/09/13 11:39:25;;;;;;;3.17;0.98;;;;;;;20.82;61.38;102060.09;5072224;28;20040;-40
2021/09/13 11:42:02;;;;;;;3.45;0.75;;;;;;;20.79;61.62;102055.91;5071424;28;20053;-33
2021/09/13 11:44:37;;;;;;;1.90;0.50;;;;;;;20.70;61.32;102057.97;5072284;28;20131;-36
2021/09/13 11:47:07;;;;;;;1.33;0.57;;;;;;;20.65;61.58;102058.16;5071615;28;20051;-36